sensor_id;sensor_type;location;lat;lon;timestamp;P1;durP1;ratioP1;P2;durP2;ratioP2
39674;SDS011;27790;50.840;4.386;2023-06-26T00:02:17;9.18;;;5.10;;
39674;SDS011;27790;50.840;4.386;2023-06-26T00:04:43;6.40;;;4.35;;
39674;SDS011;27790;50.840;4.386;2023-06-26T00:07:08;6.60;;;4.53;;
39674;SDS011;27790;50.840;4.386;2023-06-26T00:09:34;5.55;;;4.45;;
39674;SDS011;27790;50.840;4.386;2023-06-26T00:12:00;6.07;;;4.40;;
39674;SDS011;27790;50.840;4.386;2023-06-26T00:14:26;5.57;;;4.80;;
39674;SDS011;27790;50.840;4.386;2023-06-26T00:16:52;11.90;;;4.35;;
39674;SDS011;27790;50.840;4.386;2023-06-26T00:19:17;10.13;;;5.00;;
39674;SDS011;27790;50.840;4.386;2023-06-26T00:21:44;4.60;;;3.30;;
39674;SDS011;27790;50.840;4.386;2023-06-26T00:24:13;6.85;;;4.55;;
39674;SDS011;27790;50.840;4.386;2023-06-26T00:26:42;6.18;;;4.20;;
39674;SDS011;27790;50.840;4.386;2023-06-26T00:29:08;4.43;;;3.80;;
39674;SDS011;27790;50.840;4.386;2023-06-26T00:31:34;5.55;;;3.95;;
39674;SDS011;27790;50.840;4.386;2023-06-26T00:34:03;5.30;;;3.60;;
39674;SDS011;27790;50.840;4.386;2023-06-26T00:36:28;7.95;;;3.72;;
39674;SDS011;27790;50.840;4.386;2023-06-26T00:38:54;4.70;;;3.00;;
39674;SDS011;27790;50.840;4.386;2023-06-26T00:41:20;4.25;;;3.85;;
39674;SDS011;27790;50.840;4.386;2023-06-26T00:43:45;5.30;;;4.20;;
39674;SDS011;27790;50.840;4.386;2023-06-26T00:46:14;4.22;;;3.08;;
39674;SDS011;27790;50.840;4.386;2023-06-26T00:48:41;6.07;;;3.92;;
39674;SDS011;27790;50.840;4.386;2023-06-26T00:51:07;5.43;;;3.67;;
39674;SDS011;27790;50.840;4.386;2023-06-26T00:53:33;8.60;;;3.53;;
39674;SDS011;27790;50.840;4.386;2023-06-26T00:55:59;6.07;;;3.42;;
39674;SDS011;27790;50.840;4.386;2023-06-26T00:58:27;5.97;;;4.07;;
39674;SDS011;27790;50.840;4.386;2023-06-26T01:00:52;5.53;;;4.90;;
39674;SDS011;27790;50.840;4.386;2023-06-26T01:03:22;8.23;;;3.28;;
39674;SDS011;27790;50.840;4.386;2023-06-26T01:05:50;5.15;;;3.33;;
39674;SDS011;27790;50.840;4.386;2023-06-26T01:08:18;4.40;;;3.10;;
39674;SDS011;27790;50.840;4.386;2023-06-26T01:10:44;5.88;;;3.17;;
39674;SDS011;27790;50.840;4.386;2023-06-26T01:13:14;7.45;;;3.80;;
39674;SDS011;27790;50.840;4.386;2023-06-26T01:15:41;5.05;;;3.22;;
39674;SDS011;27790;50.840;4.386;2023-06-26T01:18:07;7.43;;;2.90;;
39674;SDS011;27790;50.840;4.386;2023-06-26T01:20:37;6.00;;;3.22;;
39674;SDS011;27790;50.840;4.386;2023-06-26T01:28:35;3.97;;;2.83;;
39674;SDS011;27790;50.840;4.386;2023-06-26T01:31:05;5.00;;;2.95;;
39674;SDS011;27790;50.840;4.386;2023-06-26T01:33:31;9.50;;;3.10;;
39674;SDS011;27790;50.840;4.386;2023-06-26T01:35:57;8.27;;;3.88;;
39674;SDS011;27790;50.840;4.386;2023-06-26T01:38:23;7.72;;;3.42;;
39674;SDS011;27790;50.840;4.386;2023-06-26T01:40:49;5.85;;;3.13;;
39674;SDS011;27790;50.840;4.386;2023-06-26T01:43:16;5.10;;;3.50;;
39674;SDS011;27790;50.840;4.386;2023-06-26T01:45:58;7.32;;;3.25;;
39674;SDS011;27790;50.840;4.386;2023-06-26T01:48:30;6.90;;;3.30;;
39674;SDS011;27790;50.840;4.386;2023-06-26T01:51:03;7.38;;;4.05;;
39674;SDS011;27790;50.840;4.386;2023-06-26T01:53:32;5.68;;;3.28;;
39674;SDS011;27790;50.840;4.386;2023-06-26T01:56:06;3.97;;;2.80;;
39674;SDS011;27790;50.840;4.386;2023-06-26T01:58:37;5.15;;;3.20;;
39674;SDS011;27790;50.840;4.386;2023-06-26T02:01:08;7.13;;;2.90;;
39674;SDS011;27790;50.840;4.386;2023-06-26T02:03:34;6.25;;;3.42;;
39674;SDS011;27790;50.840;4.386;2023-06-26T02:05:59;5.60;;;3.08;;
39674;SDS011;27790;50.840;4.386;2023-06-26T02:08:25;5.38;;;3.08;;
39674;SDS011;27790;50.840;4.386;2023-06-26T02:10:50;5.25;;;3.58;;
39674;SDS011;27790;50.840;4.386;2023-06-26T02:13:16;5.78;;;3.67;;
39674;SDS011;27790;50.840;4.386;2023-06-26T02:15:42;6.60;;;3.25;;
39674;SDS011;27790;50.840;4.386;2023-06-26T02:18:07;5.13;;;2.75;;
39674;SDS011;27790;50.840;4.386;2023-06-26T02:20:33;6.43;;;2.53;;
39674;SDS011;27790;50.840;4.386;2023-06-26T02:22:58;8.07;;;3.50;;
39674;SDS011;27790;50.840;4.386;2023-06-26T02:25:24;7.70;;;3.00;;
39674;SDS011;27790;50.840;4.386;2023-06-26T02:27:50;7.22;;;3.33;;
39674;SDS011;27790;50.840;4.386;2023-06-26T02:30:15;7.18;;;3.45;;
39674;SDS011;27790;50.840;4.386;2023-06-26T02:32:41;8.30;;;3.22;;
39674;SDS011;27790;50.840;4.386;2023-06-26T02:35:07;5.57;;;2.95;;
39674;SDS011;27790;50.840;4.386;2023-06-26T02:37:33;7.13;;;3.42;;
39674;SDS011;27790;50.840;4.386;2023-06-26T02:39:58;6.90;;;2.97;;
39674;SDS011;27790;50.840;4.386;2023-06-26T02:42:24;10.27;;;3.80;;
39674;SDS011;27790;50.840;4.386;2023-06-26T02:44:49;5.07;;;3.47;;
39674;SDS011;27790;50.840;4.386;2023-06-26T02:47:15;7.60;;;3.80;;
39674;SDS011;27790;50.840;4.386;2023-06-26T02:49:40;6.90;;;3.35;;
39674;SDS011;27790;50.840;4.386;2023-06-26T02:52:06;13.85;;;3.40;;
39674;SDS011;27790;50.840;4.386;2023-06-26T02:54:31;6.47;;;3.53;;
39674;SDS011;27790;50.840;4.386;2023-06-26T02:56:57;8.30;;;3.88;;
39674;SDS011;27790;50.840;4.386;2023-06-26T02:59:24;9.35;;;3.17;;
39674;SDS011;27790;50.840;4.386;2023-06-26T03:01:50;6.40;;;3.25;;
39674;SDS011;27790;50.840;4.386;2023-06-26T03:04:15;5.65;;;4.38;;
39674;SDS011;27790;50.840;4.386;2023-06-26T03:06:42;11.30;;;4.38;;
39674;SDS011;27790;50.840;4.386;2023-06-26T03:09:08;6.65;;;3.50;;
39674;SDS011;27790;50.840;4.386;2023-06-26T03:11:34;6.78;;;3.20;;
39674;SDS011;27790;50.840;4.386;2023-06-26T03:14:00;7.20;;;3.55;;
39674;SDS011;27790;50.840;4.386;2023-06-26T03:16:25;12.20;;;4.30;;
39674;SDS011;27790;50.840;4.386;2023-06-26T03:18:51;7.68;;;3.78;;
39674;SDS011;27790;50.840;4.386;2023-06-26T03:21:16;13.30;;;3.40;;
39674;SDS011;27790;50.840;4.386;2023-06-26T03:23:42;7.78;;;4.47;;
39674;SDS011;27790;50.840;4.386;2023-06-26T03:26:08;9.95;;;3.88;;
39674;SDS011;27790;50.840;4.386;2023-06-26T03:28:33;13.77;;;4.47;;
39674;SDS011;27790;50.840;4.386;2023-06-26T03:30:59;12.27;;;4.38;;
39674;SDS011;27790;50.840;4.386;2023-06-26T03:33:24;15.27;;;4.55;;
39674;SDS011;27790;50.840;4.386;2023-06-26T03:35:50;8.85;;;4.97;;
39674;SDS011;27790;50.840;4.386;2023-06-26T03:38:16;8.82;;;4.60;;
39674;SDS011;27790;50.840;4.386;2023-06-26T03:40:41;11.65;;;4.32;;
39674;SDS011;27790;50.840;4.386;2023-06-26T03:43:07;9.82;;;4.03;;
39674;SDS011;27790;50.840;4.386;2023-06-26T03:45:33;13.05;;;4.00;;
39674;SDS011;27790;50.840;4.386;2023-06-26T03:47:58;9.55;;;4.10;;
39674;SDS011;27790;50.840;4.386;2023-06-26T03:50:24;14.68;;;5.05;;
39674;SDS011;27790;50.840;4.386;2023-06-26T03:52:49;10.77;;;4.47;;
39674;SDS011;27790;50.840;4.386;2023-06-26T03:55:16;13.40;;;4.57;;
39674;SDS011;27790;50.840;4.386;2023-06-26T03:57:42;14.43;;;4.03;;
39674;SDS011;27790;50.840;4.386;2023-06-26T04:00:08;13.98;;;5.22;;
39674;SDS011;27790;50.840;4.386;2023-06-26T04:02:36;16.30;;;5.07;;
39674;SDS011;27790;50.840;4.386;2023-06-26T04:05:01;14.68;;;4.22;;
39674;SDS011;27790;50.840;4.386;2023-06-26T04:07:29;15.98;;;4.85;;
39674;SDS011;27790;50.840;4.386;2023-06-26T04:09:56;16.05;;;4.53;;
39674;SDS011;27790;50.840;4.386;2023-06-26T04:12:22;13.50;;;4.43;;
39674;SDS011;27790;50.840;4.386;2023-06-26T04:14:48;15.05;;;3.88;;
39674;SDS011;27790;50.840;4.386;2023-06-26T04:17:14;10.10;;;3.90;;
39674;SDS011;27790;50.840;4.386;2023-06-26T04:19:39;13.57;;;4.22;;
39674;SDS011;27790;50.840;4.386;2023-06-26T04:22:05;14.35;;;4.70;;
39674;SDS011;27790;50.840;4.386;2023-06-26T04:24:31;10.85;;;3.50;;
39674;SDS011;27790;50.840;4.386;2023-06-26T04:26:56;12.73;;;3.42;;
39674;SDS011;27790;50.840;4.386;2023-06-26T04:29:25;9.55;;;3.97;;
39674;SDS011;27790;50.840;4.386;2023-06-26T04:31:52;11.68;;;3.70;;
39674;SDS011;27790;50.840;4.386;2023-06-26T04:34:24;16.20;;;3.67;;
39674;SDS011;27790;50.840;4.386;2023-06-26T04:36:50;17.27;;;4.28;;
39674;SDS011;27790;50.840;4.386;2023-06-26T04:39:15;12.85;;;4.00;;
39674;SDS011;27790;50.840;4.386;2023-06-26T04:41:42;12.52;;;3.38;;
39674;SDS011;27790;50.840;4.386;2023-06-26T04:44:09;11.13;;;3.55;;
39674;SDS011;27790;50.840;4.386;2023-06-26T04:46:34;20.27;;;3.33;;
39674;SDS011;27790;50.840;4.386;2023-06-26T04:49:00;11.38;;;3.50;;
39674;SDS011;27790;50.840;4.386;2023-06-26T04:51:28;13.20;;;3.95;;
39674;SDS011;27790;50.840;4.386;2023-06-26T04:53:54;10.65;;;2.95;;
39674;SDS011;27790;50.840;4.386;2023-06-26T04:56:19;10.30;;;4.25;;
39674;SDS011;27790;50.840;4.386;2023-06-26T04:58:45;13.85;;;4.10;;
39674;SDS011;27790;50.840;4.386;2023-06-26T05:01:11;13.98;;;3.53;;
39674;SDS011;27790;50.840;4.386;2023-06-26T05:03:38;11.38;;;3.78;;
39674;SDS011;27790;50.840;4.386;2023-06-26T05:06:04;13.52;;;3.60;;
39674;SDS011;27790;50.840;4.386;2023-06-26T05:08:30;12.70;;;3.88;;
39674;SDS011;27790;50.840;4.386;2023-06-26T05:10:55;17.08;;;3.72;;
39674;SDS011;27790;50.840;4.386;2023-06-26T05:13:24;16.27;;;4.28;;
39674;SDS011;27790;50.840;4.386;2023-06-26T05:15:51;13.82;;;3.47;;
39674;SDS011;27790;50.840;4.386;2023-06-26T05:18:17;9.32;;;3.08;;
39674;SDS011;27790;50.840;4.386;2023-06-26T05:20:43;24.10;;;4.75;;
39674;SDS011;27790;50.840;4.386;2023-06-26T05:23:10;12.75;;;3.53;;
39674;SDS011;27790;50.840;4.386;2023-06-26T05:25:37;18.55;;;4.22;;
39674;SDS011;27790;50.840;4.386;2023-06-26T05:28:03;22.80;;;4.38;;
39674;SDS011;27790;50.840;4.386;2023-06-26T05:30:35;20.27;;;4.43;;
39674;SDS011;27790;50.840;4.386;2023-06-26T05:33:01;6.82;;;2.97;;
39674;SDS011;27790;50.840;4.386;2023-06-26T05:35:28;11.30;;;3.80;;
39674;SDS011;27790;50.840;4.386;2023-06-26T05:37:55;7.93;;;3.45;;
39674;SDS011;27790;50.840;4.386;2023-06-26T05:40:21;13.73;;;3.75;;
39674;SDS011;27790;50.840;4.386;2023-06-26T05:42:47;12.60;;;3.55;;
39674;SDS011;27790;50.840;4.386;2023-06-26T05:45:13;15.80;;;3.70;;
39674;SDS011;27790;50.840;4.386;2023-06-26T05:47:40;13.88;;;3.95;;
39674;SDS011;27790;50.840;4.386;2023-06-26T05:50:06;16.98;;;4.47;;
39674;SDS011;27790;50.840;4.386;2023-06-26T05:52:33;15.50;;;3.40;;
39674;SDS011;27790;50.840;4.386;2023-06-26T05:55:00;19.08;;;4.00;;
39674;SDS011;27790;50.840;4.386;2023-06-26T05:57:26;21.20;;;4.70;;
39674;SDS011;27790;50.840;4.386;2023-06-26T05:59:53;14.52;;;3.72;;
39674;SDS011;27790;50.840;4.386;2023-06-26T06:02:18;25.33;;;5.85;;
39674;SDS011;27790;50.840;4.386;2023-06-26T06:04:44;10.70;;;2.30;;
39674;SDS011;27790;50.840;4.386;2023-06-26T06:07:10;8.95;;;2.42;;
39674;SDS011;27790;50.840;4.386;2023-06-26T06:09:36;14.73;;;2.70;;
39674;SDS011;27790;50.840;4.386;2023-06-26T06:12:02;11.20;;;3.03;;
39674;SDS011;27790;50.840;4.386;2023-06-26T06:14:29;6.97;;;2.47;;
39674;SDS011;27790;50.840;4.386;2023-06-26T06:16:55;7.57;;;2.55;;
39674;SDS011;27790;50.840;4.386;2023-06-26T06:19:21;8.43;;;2.00;;
39674;SDS011;27790;50.840;4.386;2023-06-26T06:21:47;8.63;;;2.45;;
39674;SDS011;27790;50.840;4.386;2023-06-26T06:24:13;8.02;;;2.13;;
39674;SDS011;27790;50.840;4.386;2023-06-26T06:26:39;7.25;;;2.47;;
39674;SDS011;27790;50.840;4.386;2023-06-26T06:29:04;8.35;;;2.65;;
39674;SDS011;27790;50.840;4.386;2023-06-26T06:31:30;27.92;;;3.50;;
39674;SDS011;27790;50.840;4.386;2023-06-26T06:33:56;9.98;;;3.17;;
39674;SDS011;27790;50.840;4.386;2023-06-26T06:36:22;7.13;;;2.55;;
39674;SDS011;27790;50.840;4.386;2023-06-26T06:38:47;9.30;;;2.95;;
39674;SDS011;27790;50.840;4.386;2023-06-26T06:41:13;9.35;;;2.40;;
39674;SDS011;27790;50.840;4.386;2023-06-26T06:43:39;13.90;;;2.97;;
39674;SDS011;27790;50.840;4.386;2023-06-26T06:46:05;13.40;;;2.38;;
39674;SDS011;27790;50.840;4.386;2023-06-26T06:48:30;13.55;;;2.88;;
39674;SDS011;27790;50.840;4.386;2023-06-26T06:50:56;10.98;;;3.10;;
39674;SDS011;27790;50.840;4.386;2023-06-26T06:53:22;12.95;;;2.20;;
39674;SDS011;27790;50.840;4.386;2023-06-26T06:55:48;10.68;;;2.28;;
39674;SDS011;27790;50.840;4.386;2023-06-26T06:58:14;8.43;;;2.80;;
39674;SDS011;27790;50.840;4.386;2023-06-26T07:00:47;5.95;;;2.00;;
39674;SDS011;27790;50.840;4.386;2023-06-26T07:03:14;12.68;;;2.72;;
39674;SDS011;27790;50.840;4.386;2023-06-26T07:05:41;9.65;;;2.28;;
39674;SDS011;27790;50.840;4.386;2023-06-26T07:08:07;7.93;;;2.55;;
39674;SDS011;27790;50.840;4.386;2023-06-26T07:10:33;7.93;;;1.98;;
39674;SDS011;27790;50.840;4.386;2023-06-26T07:12:58;11.30;;;1.88;;
39674;SDS011;27790;50.840;4.386;2023-06-26T07:15:24;12.45;;;2.17;;
39674;SDS011;27790;50.840;4.386;2023-06-26T07:17:52;6.80;;;2.17;;
39674;SDS011;27790;50.840;4.386;2023-06-26T07:20:18;12.20;;;2.42;;
39674;SDS011;27790;50.840;4.386;2023-06-26T07:22:44;10.07;;;2.10;;
39674;SDS011;27790;50.840;4.386;2023-06-26T07:25:10;6.28;;;1.90;;
39674;SDS011;27790;50.840;4.386;2023-06-26T07:27:37;6.43;;;1.92;;
39674;SDS011;27790;50.840;4.386;2023-06-26T07:30:03;7.28;;;2.13;;
39674;SDS011;27790;50.840;4.386;2023-06-26T07:32:29;6.15;;;1.80;;
39674;SDS011;27790;50.840;4.386;2023-06-26T07:34:55;6.55;;;1.92;;
39674;SDS011;27790;50.840;4.386;2023-06-26T07:37:20;7.15;;;2.03;;
39674;SDS011;27790;50.840;4.386;2023-06-26T07:39:47;6.75;;;1.80;;
39674;SDS011;27790;50.840;4.386;2023-06-26T07:42:13;5.07;;;2.00;;
39674;SDS011;27790;50.840;4.386;2023-06-26T07:44:39;6.57;;;2.00;;
39674;SDS011;27790;50.840;4.386;2023-06-26T07:47:04;5.63;;;2.30;;
39674;SDS011;27790;50.840;4.386;2023-06-26T07:49:30;6.28;;;2.15;;
39674;SDS011;27790;50.840;4.386;2023-06-26T07:51:56;7.95;;;1.80;;
39674;SDS011;27790;50.840;4.386;2023-06-26T07:54:21;6.80;;;2.70;;
39674;SDS011;27790;50.840;4.386;2023-06-26T07:59:26;7.35;;;2.13;;
39674;SDS011;27790;50.840;4.386;2023-06-26T08:01:53;12.25;;;2.75;;
39674;SDS011;27790;50.840;4.386;2023-06-26T08:04:22;7.05;;;2.33;;
39674;SDS011;27790;50.840;4.386;2023-06-26T08:06:48;9.32;;;1.60;;
39674;SDS011;27790;50.840;4.386;2023-06-26T08:09:15;41.83;;;4.47;;
39674;SDS011;27790;50.840;4.386;2023-06-26T08:11:42;10.43;;;1.95;;
39674;SDS011;27790;50.840;4.386;2023-06-26T08:14:07;3.25;;;2.05;;
39674;SDS011;27790;50.840;4.386;2023-06-26T08:16:33;8.60;;;2.10;;
39674;SDS011;27790;50.840;4.386;2023-06-26T08:18:59;8.65;;;2.22;;
39674;SDS011;27790;50.840;4.386;2023-06-26T08:21:25;10.52;;;2.10;;
39674;SDS011;27790;50.840;4.386;2023-06-26T08:23:50;12.63;;;2.30;;
39674;SDS011;27790;50.840;4.386;2023-06-26T08:26:16;4.63;;;1.60;;
39674;SDS011;27790;50.840;4.386;2023-06-26T08:28:41;8.68;;;2.10;;
39674;SDS011;27790;50.840;4.386;2023-06-26T08:31:07;7.68;;;2.25;;
39674;SDS011;27790;50.840;4.386;2023-06-26T08:33:33;5.30;;;1.60;;
39674;SDS011;27790;50.840;4.386;2023-06-26T08:35:58;6.25;;;2.08;;
39674;SDS011;27790;50.840;4.386;2023-06-26T08:38:24;5.47;;;1.75;;
39674;SDS011;27790;50.840;4.386;2023-06-26T08:40:49;4.03;;;1.90;;
39674;SDS011;27790;50.840;4.386;2023-06-26T08:43:15;11.63;;;2.80;;
39674;SDS011;27790;50.840;4.386;2023-06-26T08:45:41;7.50;;;1.83;;
39674;SDS011;27790;50.840;4.386;2023-06-26T08:48:07;8.57;;;2.00;;
39674;SDS011;27790;50.840;4.386;2023-06-26T08:50:34;7.45;;;2.15;;
39674;SDS011;27790;50.840;4.386;2023-06-26T08:53:04;6.32;;;1.98;;
39674;SDS011;27790;50.840;4.386;2023-06-26T08:55:36;6.53;;;1.70;;
39674;SDS011;27790;50.840;4.386;2023-06-26T08:58:06;6.38;;;1.77;;
39674;SDS011;27790;50.840;4.386;2023-06-26T09:00:31;7.90;;;1.88;;
39674;SDS011;27790;50.840;4.386;2023-06-26T09:02:59;9.95;;;1.90;;
39674;SDS011;27790;50.840;4.386;2023-06-26T09:05:26;7.65;;;2.10;;
39674;SDS011;27790;50.840;4.386;2023-06-26T09:07:56;6.43;;;1.95;;
39674;SDS011;27790;50.840;4.386;2023-06-26T09:10:22;4.57;;;1.90;;
39674;SDS011;27790;50.840;4.386;2023-06-26T09:12:48;7.10;;;1.27;;
39674;SDS011;27790;50.840;4.386;2023-06-26T09:15:14;80.50;;;5.70;;
39674;SDS011;27790;50.840;4.386;2023-06-26T09:17:40;3.97;;;1.83;;
39674;SDS011;27790;50.840;4.386;2023-06-26T09:20:07;5.28;;;2.00;;
39674;SDS011;27790;50.840;4.386;2023-06-26T09:22:33;8.00;;;2.22;;
39674;SDS011;27790;50.840;4.386;2023-06-26T09:25:03;8.63;;;2.40;;
39674;SDS011;27790;50.840;4.386;2023-06-26T09:27:30;8.40;;;1.67;;
39674;SDS011;27790;50.840;4.386;2023-06-26T09:29:56;9.27;;;1.70;;
39674;SDS011;27790;50.840;4.386;2023-06-26T09:32:26;14.10;;;2.33;;
39674;SDS011;27790;50.840;4.386;2023-06-26T09:34:55;8.70;;;2.03;;
39674;SDS011;27790;50.840;4.386;2023-06-26T09:37:21;13.93;;;2.65;;
39674;SDS011;27790;50.840;4.386;2023-06-26T09:39:47;6.13;;;1.75;;
39674;SDS011;27790;50.840;4.386;2023-06-26T09:42:14;6.28;;;1.92;;
39674;SDS011;27790;50.840;4.386;2023-06-26T09:44:43;7.45;;;1.83;;
39674;SDS011;27790;50.840;4.386;2023-06-26T09:47:10;7.45;;;2.35;;
39674;SDS011;27790;50.840;4.386;2023-06-26T09:49:36;11.10;;;2.75;;
39674;SDS011;27790;50.840;4.386;2023-06-26T09:52:05;8.75;;;2.30;;
39674;SDS011;27790;50.840;4.386;2023-06-26T09:54:32;11.38;;;2.33;;
39674;SDS011;27790;50.840;4.386;2023-06-26T09:59:35;3.80;;;1.15;;
39674;SDS011;27790;50.840;4.386;2023-06-26T10:02:01;6.75;;;2.30;;
39674;SDS011;27790;50.840;4.386;2023-06-26T10:04:27;7.38;;;1.90;;
39674;SDS011;27790;50.840;4.386;2023-06-26T10:06:54;6.30;;;1.63;;
39674;SDS011;27790;50.840;4.386;2023-06-26T10:09:22;7.82;;;2.75;;
39674;SDS011;27790;50.840;4.386;2023-06-26T10:14:32;3.50;;;1.40;;
39674;SDS011;27790;50.840;4.386;2023-06-26T10:17:01;7.15;;;1.50;;
39674;SDS011;27790;50.840;4.386;2023-06-26T10:19:31;1.85;;;1.30;;
39674;SDS011;27790;50.840;4.386;2023-06-26T10:21:58;4.97;;;1.40;;
39674;SDS011;27790;50.840;4.386;2023-06-26T10:24:27;6.80;;;1.33;;
39674;SDS011;27790;50.840;4.386;2023-06-26T10:26:57;5.72;;;1.50;;
39674;SDS011;27790;50.840;4.386;2023-06-26T10:29:28;23.58;;;2.45;;
39674;SDS011;27790;50.840;4.386;2023-06-26T10:31:58;8.27;;;1.48;;
39674;SDS011;27790;50.840;4.386;2023-06-26T10:34:25;6.95;;;1.90;;
39674;SDS011;27790;50.840;4.386;2023-06-26T10:37:01;6.13;;;1.77;;
39674;SDS011;27790;50.840;4.386;2023-06-26T10:42:17;9.40;;;2.45;;
39674;SDS011;27790;50.840;4.386;2023-06-26T10:44:44;13.40;;;2.22;;
39674;SDS011;27790;50.840;4.386;2023-06-26T10:47:12;8.50;;;2.60;;
39674;SDS011;27790;50.840;4.386;2023-06-26T10:49:55;3.65;;;1.45;;
39674;SDS011;27790;50.840;4.386;2023-06-26T10:52:21;9.32;;;2.25;;
39674;SDS011;27790;50.840;4.386;2023-06-26T10:54:46;4.57;;;2.00;;
39674;SDS011;27790;50.840;4.386;2023-06-26T10:57:12;7.85;;;1.92;;
39674;SDS011;27790;50.840;4.386;2023-06-26T10:59:49;8.73;;;1.90;;
39674;SDS011;27790;50.840;4.386;2023-06-26T11:13:20;8.48;;;2.15;;
39674;SDS011;27790;50.840;4.386;2023-06-26T11:15:46;5.70;;;2.10;;
39674;SDS011;27790;50.840;4.386;2023-06-26T11:18:13;3.30;;;1.90;;
39674;SDS011;27790;50.840;4.386;2023-06-26T11:20:39;7.60;;;2.60;;
39674;SDS011;27790;50.840;4.386;2023-06-26T11:23:05;7.50;;;2.28;;
39674;SDS011;27790;50.840;4.386;2023-06-26T11:25:34;6.43;;;1.95;;
39674;SDS011;27790;50.840;4.386;2023-06-26T11:28:00;9.85;;;2.30;;
39674;SDS011;27790;50.840;4.386;2023-06-26T11:30:26;12.95;;;2.22;;
39674;SDS011;27790;50.840;4.386;2023-06-26T11:32:52;9.93;;;2.75;;
39674;SDS011;27790;50.840;4.386;2023-06-26T11:35:24;6.45;;;2.00;;
39674;SDS011;27790;50.840;4.386;2023-06-26T11:37:55;8.98;;;2.38;;
39674;SDS011;27790;50.840;4.386;2023-06-26T11:40:29;5.13;;;1.77;;
39674;SDS011;27790;50.840;4.386;2023-06-26T11:42:58;6.97;;;1.75;;
39674;SDS011;27790;50.840;4.386;2023-06-26T11:45:25;4.35;;;2.17;;
39674;SDS011;27790;50.840;4.386;2023-06-26T11:47:54;5.03;;;2.65;;
39674;SDS011;27790;50.840;4.386;2023-06-26T11:50:21;7.05;;;2.40;;
39674;SDS011;27790;50.840;4.386;2023-06-26T11:52:52;3.35;;;2.10;;
39674;SDS011;27790;50.840;4.386;2023-06-26T11:55:24;7.80;;;2.28;;
39674;SDS011;27790;50.840;4.386;2023-06-26T11:57:54;2.65;;;1.60;;
39674;SDS011;27790;50.840;4.386;2023-06-26T12:00:20;6.82;;;1.67;;
39674;SDS011;27790;50.840;4.386;2023-06-26T12:02:47;9.57;;;2.75;;
39674;SDS011;27790;50.840;4.386;2023-06-26T12:05:13;12.85;;;2.63;;
39674;SDS011;27790;50.840;4.386;2023-06-26T12:07:43;7.60;;;2.53;;
39674;SDS011;27790;50.840;4.386;2023-06-26T12:10:11;29.73;;;4.88;;
39674;SDS011;27790;50.840;4.386;2023-06-26T12:12:38;6.40;;;1.50;;
39674;SDS011;27790;50.840;4.386;2023-06-26T12:15:05;8.80;;;1.75;;
39674;SDS011;27790;50.840;4.386;2023-06-26T12:17:32;45.75;;;4.63;;
39674;SDS011;27790;50.840;4.386;2023-06-26T12:19:58;31.45;;;4.53;;
39674;SDS011;27790;50.840;4.386;2023-06-26T12:22:24;10.40;;;2.25;;
39674;SDS011;27790;50.840;4.386;2023-06-26T12:24:59;9.68;;;2.05;;
39674;SDS011;27790;50.840;4.386;2023-06-26T12:27:24;4.90;;;2.05;;
39674;SDS011;27790;50.840;4.386;2023-06-26T12:29:51;5.10;;;1.40;;
39674;SDS011;27790;50.840;4.386;2023-06-26T12:32:18;3.20;;;1.50;;
39674;SDS011;27790;50.840;4.386;2023-06-26T12:34:47;3.05;;;1.17;;
39674;SDS011;27790;50.840;4.386;2023-06-26T12:37:15;18.65;;;2.10;;
39674;SDS011;27790;50.840;4.386;2023-06-26T12:42:19;6.85;;;1.92;;
39674;SDS011;27790;50.840;4.386;2023-06-26T12:44:46;4.30;;;1.33;;
39674;SDS011;27790;50.840;4.386;2023-06-26T12:47:13;7.80;;;1.20;;
39674;SDS011;27790;50.840;4.386;2023-06-26T12:49:40;4.60;;;1.33;;
39674;SDS011;27790;50.840;4.386;2023-06-26T12:52:08;11.07;;;2.50;;
39674;SDS011;27790;50.840;4.386;2023-06-26T12:54:35;4.53;;;1.67;;
39674;SDS011;27790;50.840;4.386;2023-06-26T12:57:03;6.53;;;1.20;;
39674;SDS011;27790;50.840;4.386;2023-06-26T12:59:30;5.72;;;1.40;;
39674;SDS011;27790;50.840;4.386;2023-06-26T13:01:56;4.57;;;1.42;;
39674;SDS011;27790;50.840;4.386;2023-06-26T13:04:22;3.15;;;1.38;;
39674;SDS011;27790;50.840;4.386;2023-06-26T13:06:48;4.35;;;1.25;;
39674;SDS011;27790;50.840;4.386;2023-06-26T13:09:14;17.60;;;2.00;;
39674;SDS011;27790;50.840;4.386;2023-06-26T13:11:40;8.15;;;2.10;;
39674;SDS011;27790;50.840;4.386;2023-06-26T13:14:06;9.45;;;1.85;;
39674;SDS011;27790;50.840;4.386;2023-06-26T13:16:32;2.83;;;1.20;;
39674;SDS011;27790;50.840;4.386;2023-06-26T13:18:58;6.90;;;2.10;;
39674;SDS011;27790;50.840;4.386;2023-06-26T13:21:24;8.52;;;1.38;;
39674;SDS011;27790;50.840;4.386;2023-06-26T13:23:50;8.50;;;1.85;;
39674;SDS011;27790;50.840;4.386;2023-06-26T13:26:16;5.18;;;1.83;;
39674;SDS011;27790;50.840;4.386;2023-06-26T13:28:41;2.97;;;1.67;;
39674;SDS011;27790;50.840;4.386;2023-06-26T13:31:07;4.75;;;1.63;;
39674;SDS011;27790;50.840;4.386;2023-06-26T13:33:33;5.32;;;1.70;;
39674;SDS011;27790;50.840;4.386;2023-06-26T13:35:58;4.35;;;1.92;;
39674;SDS011;27790;50.840;4.386;2023-06-26T13:38:24;6.10;;;1.83;;
39674;SDS011;27790;50.840;4.386;2023-06-26T13:40:53;2.97;;;1.17;;
39674;SDS011;27790;50.840;4.386;2023-06-26T13:43:20;7.18;;;1.20;;
39674;SDS011;27790;50.840;4.386;2023-06-26T13:45:47;5.53;;;1.60;;
39674;SDS011;27790;50.840;4.386;2023-06-26T13:48:13;6.53;;;1.70;;
39674;SDS011;27790;50.840;4.386;2023-06-26T13:50:39;5.55;;;1.58;;
39674;SDS011;27790;50.840;4.386;2023-06-26T13:53:04;6.07;;;1.55;;
39674;SDS011;27790;50.840;4.386;2023-06-26T13:55:30;5.65;;;1.23;;
39674;SDS011;27790;50.840;4.386;2023-06-26T13:57:57;7.32;;;1.52;;
39674;SDS011;27790;50.840;4.386;2023-06-26T14:00:23;11.30;;;1.92;;
39674;SDS011;27790;50.840;4.386;2023-06-26T14:02:50;6.15;;;1.90;;
39674;SDS011;27790;50.840;4.386;2023-06-26T14:05:16;6.20;;;1.65;;
39674;SDS011;27790;50.840;4.386;2023-06-26T14:07:43;3.92;;;1.60;;
39674;SDS011;27790;50.840;4.386;2023-06-26T14:10:09;7.05;;;1.77;;
39674;SDS011;27790;50.840;4.386;2023-06-26T14:12:35;4.28;;;1.15;;
39674;SDS011;27790;50.840;4.386;2023-06-26T14:15:00;6.18;;;1.60;;
39674;SDS011;27790;50.840;4.386;2023-06-26T14:17:26;2.75;;;1.35;;
39674;SDS011;27790;50.840;4.386;2023-06-26T14:19:52;12.57;;;1.77;;
39674;SDS011;27790;50.840;4.386;2023-06-26T14:22:18;3.58;;;1.35;;
39674;SDS011;27790;50.840;4.386;2023-06-26T14:24:43;7.20;;;1.30;;
39674;SDS011;27790;50.840;4.386;2023-06-26T14:27:09;4.43;;;1.40;;
39674;SDS011;27790;50.840;4.386;2023-06-26T14:29:35;7.22;;;1.52;;
39674;SDS011;27790;50.840;4.386;2023-06-26T14:32:01;4.95;;;1.45;;
39674;SDS011;27790;50.840;4.386;2023-06-26T14:34:28;7.55;;;1.65;;
39674;SDS011;27790;50.840;4.386;2023-06-26T14:36:53;6.63;;;1.35;;
39674;SDS011;27790;50.840;4.386;2023-06-26T14:39:19;4.55;;;1.42;;
39674;SDS011;27790;50.840;4.386;2023-06-26T14:41:45;6.22;;;1.95;;
39674;SDS011;27790;50.840;4.386;2023-06-26T14:44:12;4.97;;;1.70;;
39674;SDS011;27790;50.840;4.386;2023-06-26T14:46:38;1.73;;;1.10;;
39674;SDS011;27790;50.840;4.386;2023-06-26T14:49:03;3.78;;;1.40;;
39674;SDS011;27790;50.840;4.386;2023-06-26T14:51:29;4.93;;;1.38;;
39674;SDS011;27790;50.840;4.386;2023-06-26T14:53:55;4.10;;;1.20;;
39674;SDS011;27790;50.840;4.386;2023-06-26T14:56:20;3.88;;;1.33;;
39674;SDS011;27790;50.840;4.386;2023-06-26T14:58:46;3.90;;;1.15;;
39674;SDS011;27790;50.840;4.386;2023-06-26T15:01:12;3.95;;;1.38;;
39674;SDS011;27790;50.840;4.386;2023-06-26T15:03:40;11.00;;;1.98;;
39674;SDS011;27790;50.840;4.386;2023-06-26T15:06:06;9.10;;;2.35;;
39674;SDS011;27790;50.840;4.386;2023-06-26T15:08:32;6.28;;;1.67;;
39674;SDS011;27790;50.840;4.386;2023-06-26T15:10:57;3.17;;;1.70;;